Time;durP1;ratioP1;P1;durP2;ratioP2;P2;SDS_P1;SDS_P2;PMS_P1;PMS_P2;Temp;Humidity;BMP_temperature;BMP_pressure;BME280_temperature;BME280_humidity;BME280_pressure;Samples;Min_cycle;Max_cycle;Signal;HPM_P1;HPM_P2
2024/01/09 00:00:27;;;;;;;7.32;3.83;;;;;;;;;;5109750;27;20052;-61
2024/01/09 00:02:53;;;;;;;8.13;3.67;;;;;;;;;;5110460;27;20624;-60
2024/01/09 00:05:19;;;;;;;7.45;3.80;;;;;;;;;;5109355;27;20048;-60
2024/01/09 00:07:46;;;;;;;6.43;3.30;;;;;;;;;;5109627;27;20557;-61
2024/01/09 00:10:12;;;;;;;6.80;3.17;;;;;;;;;;5109654;27;20109;-61
2024/01/09 00:12:39;;;;;;;5.25;3.55;;;;;;;;;;5109375;27;20059;-61
2024/01/09 00:15:07;;;;;;;4.55;2.92;;;;;;;;;;5109561;27;20056;-62
2024/01/09 00:17:33;;;;;;;5.97;3.05;;;;;;;;;;5108886;27;20056;-61
2024/01/09 00:20:00;;;;;;;8.60;4.07;;;;;;;;;;5109485;27;20075;-61
2024/01/09 00:22:26;;;;;;;4.55;3.25;;;;;;;;;;5108866;27;20082;-60
2024/01/09 00:24:52;;;;;;;5.15;3.13;;;;;;;;;;5109822;27;20199;-61
2024/01/09 00:27:19;;;;;;;8.35;3.80;;;;;;;;;;5109434;27;20106;-61
2024/01/09 00:29:45;;;;;;;5.40;3.47;;;;;;;;;;5109339;27;20048;-61
2024/01/09 00:32:12;;;;;;;8.05;3.10;;;;;;;;;;5109091;27;20123;-61
2024/01/09 00:34:40;;;;;;;6.18;3.45;;;;;;;;;;5109459;27;20185;-61
2024/01/09 00:37:06;;;;;;;7.70;3.75;;;;;;;;;;5108594;27;20056;-61
2024/01/09 00:39:33;;;;;;;5.00;3.35;;;;;;;;;;5109153;27;20125;-61
2024/01/09 00:41:59;;;;;;;4.30;3.30;;;;;;;;;;5109303;27;20052;-60
2024/01/09 00:44:25;;;;;;;4.32;2.80;;;;;;;;;;5109180;27;20062;-60
2024/01/09 00:46:52;;;;;;;6.78;3.20;;;;;;;;;;5109343;27;20097;-61
2024/01/09 00:49:18;;;;;;;5.32;3.63;;;;;;;;;;5108256;27;20060;-61
2024/01/09 00:51:45;;;;;;;5.97;3.50;;;;;;;;;;5107761;28;20102;-61
2024/01/09 00:54:11;;;;;;;5.63;3.25;;;;;;;;;;5107880;27;20052;-61
2024/01/09 00:56:37;;;;;;;7.65;2.95;;;;;;;;;;5108443;27;20103;-61
2024/01/09 00:59:04;;;;;;;3.80;2.60;;;;;;;;;;5108681;27;20056;-61
2024/01/09 01:01:30;;;;;;;4.13;2.75;;;;;;;;;;5108444;27;20063;-60
2024/01/09 01:03:57;;;;;;;6.82;4.15;;;;;;;;;;5108681;27;20055;-60
2024/01/09 01:06:23;;;;;;;4.65;2.85;;;;;;;;;;5108222;27;20537;-62
2024/01/09 01:08:49;;;;;;;4.75;2.88;;;;;;;;;;5109352;27;20056;-61
2024/01/09 01:11:16;;;;;;;5.15;3.20;;;;;;;;;;5108456;27;20098;-60
2024/01/09 01:13:42;;;;;;;4.82;2.97;;;;;;;;;;5108417;27;20052;-61
2024/01/09 01:16:09;;;;;;;6.43;3.03;;;;;;;;;;5108906;27;20079;-59
2024/01/09 01:18:35;;;;;;;4.65;3.03;;;;;;;;;;5108301;27;20131;-61
2024/01/09 01:21:01;;;;;;;4.50;3.22;;;;;;;;;;5108289;27;20493;-60
2024/01/09 01:23:28;;;;;;;4.03;2.60;;;;;;;;;;5109067;27;20056;-61
2024/01/09 01:25:54;;;;;;;5.60;3.40;;;;;;;;;;5107575;27;20120;-61
2024/01/09 01:28:21;;;;;;;4.95;2.63;;;;;;;;;;5109066;27;20052;-61
2024/01/09 01:30:47;;;;;;;4.93;3.20;;;;;;;;;;5107920;27;20044;-61
2024/01/09 01:33:13;;;;;;;4.68;2.83;;;;;;;;;;5108090;27;20054;-61
2024/01/09 01:35:40;;;;;;;4.88;2.83;;;;;;;;;;5108497;27;20059;-59
2024/01/09 01:38:07;;;;;;;3.90;2.47;;;;;;;;;;5108524;27;20486;-61
2024/01/09 01:40:33;;;;;;;4.47;2.83;;;;;;;;;;5107911;27;20069;-61
2024/01/09 01:43:00;;;;;;;4.78;2.85;;;;;;;;;;5108536;27;20056;-61
2024/01/09 01:45:26;;;;;;;4.35;3.03;;;;;;;;;;5108128;27;20135;-61
2024/01/09 01:47:52;;;;;;;2.95;2.40;;;;;;;;;;5107698;27;20139;-61
2024/01/09 01:50:19;;;;;;;3.30;2.35;;;;;;;;;;5107462;27;20067;-59
2024/01/09 01:52:46;;;;;;;4.75;2.88;;;;;;;;;;5108206;28;20437;-61
2024/01/09 01:55:13;;;;;;;4.97;3.03;;;;;;;;;;5107232;27;20128;-59
2024/01/09 01:57:40;;;;;;;4.70;2.90;;;;;;;;;;5108037;27;20056;-60
2024/01/09 02:00:07;;;;;;;4.85;2.97;;;;;;;;;;5097344;28;20048;-61
2024/01/09 02:02:34;;;;;;;6.55;2.97;;;;;;;;;;5107940;27;20063;-60
2024/01/09 02:05:01;;;;;;;5.45;3.22;;;;;;;;;;5108898;27;20060;-59
2024/01/09 02:07:28;;;;;;;5.18;2.70;;;;;;;;;;5111862;27;20515;-61
2024/01/09 02:09:55;;;;;;;3.72;2.67;;;;;;;;;;5111726;27;20059;-61
2024/01/09 02:12:21;;;;;;;3.25;2.55;;;;;;;;;;5112348;27;20084;-61
2024/01/09 02:14:47;;;;;;;7.50;2.97;;;;;;;;;;5111012;27;20075;-60
2024/01/09 02:17:14;;;;;;;5.53;3.40;;;;;;;;;;5111259;27;20052;-61
2024/01/09 02:19:40;;;;;;;4.32;2.55;;;;;;;;;;5111331;27;20083;-61
2024/01/09 02:22:07;;;;;;;5.57;3.03;;;;;;;;;;5111323;27;20056;-60
2024/01/09 02:24:33;;;;;;;6.57;3.47;;;;;;;;;;5110543;27;20415;-61
2024/01/09 02:27:05;;;;;;;4.90;3.65;;;;;;;;;;5111472;27;20052;-61
2024/01/09 02:29:32;;;;;;;4.88;2.97;;;;;;;;;;5111507;27;20048;-60
2024/01/09 02:31:59;;;;;;;6.95;3.50;;;;;;;;;;5110866;27;20068;-60
2024/01/09 02:34:27;;;;;;;5.53;3.38;;;;;;;;;;5111609;27;20475;-60
2024/01/09 02:36:54;;;;;;;4.95;3.20;;;;;;;;;;5111655;27;20052;-61
2024/01/09 02:39:20;;;;;;;5.32;3.45;;;;;;;;;;5110796;27;20056;-61
2024/01/09 02:41:47;;;;;;;7.40;4.05;;;;;;;;;;5111471;27;20086;-59
2024/01/09 02:44:14;;;;;;;8.98;4.00;;;;;;;;;;5110961;27;20052;-59
2024/01/09 02:46:41;;;;;;;4.28;3.05;;;;;;;;;;5110656;27;20052;-61
2024/01/09 02:49:07;;;;;;;4.80;3.40;;;;;;;;;;5110318;27;20110;-61
2024/01/09 02:51:34;;;;;;;6.63;3.50;;;;;;;;;;5110695;27;20056;-61
2024/01/09 02:54:00;;;;;;;8.77;3.47;;;;;;;;;;5110990;27;20490;-60
2024/01/09 02:56:27;;;;;;;4.93;3.08;;;;;;;;;;5110868;27;20070;-60
2024/01/09 02:58:53;;;;;;;6.22;3.60;;;;;;;;;;5110392;27;20513;-61
2024/01/09 03:01:23;;;;;;;4.45;3.20;;;;;;;;;;5110372;28;20052;-59
2024/01/09 03:03:49;;;;;;;5.22;3.28;;;;;;;;;;5109834;27;20528;-61
2024/01/09 03:06:15;;;;;;;4.50;3.47;;;;;;;;;;5110896;27;20063;-61
2024/01/09 03:08:42;;;;;;;5.93;3.65;;;;;;;;;;5110881;27;20054;-60
2024/01/09 03:11:08;;;;;;;6.53;4.03;;;;;;;;;;5110794;27;20076;-61
2024/01/09 03:13:35;;;;;;;7.32;3.45;;;;;;;;;;5110919;27;20055;-61
2024/01/09 03:16:01;;;;;;;5.25;2.72;;;;;;;;;;5110087;27;20047;-60
2024/01/09 03:18:28;;;;;;;5.68;3.40;;;;;;;;;;5110880;27;20258;-62
2024/01/09 03:20:54;;;;;;;6.90;3.67;;;;;;;;;;5111028;27;20058;-60
2024/01/09 03:23:21;;;;;;;5.03;3.53;;;;;;;;;;5110301;27;20048;-61
2024/01/09 03:25:47;;;;;;;7.82;3.65;;;;;;;;;;5110188;27;20052;-62
2024/01/09 03:28:13;;;;;;;4.57;3.13;;;;;;;;;;5109340;27;20140;-61
2024/01/09 03:30:40;;;;;;;5.22;3.05;;;;;;;;;;5109659;27;20056;-61
2024/01/09 03:33:06;;;;;;;6.72;3.55;;;;;;;;;;5110134;27;20520;-61
2024/01/09 03:35:33;;;;;;;6.93;3.58;;;;;;;;;;5110060;27;20059;-59
2024/01/09 03:37:59;;;;;;;7.03;3.65;;;;;;;;;;5110828;27;20044;-61
2024/01/09 03:40:25;;;;;;;6.28;3.40;;;;;;;;;;5109598;27;20056;-60
2024/01/09 03:42:52;;;;;;;6.22;3.70;;;;;;;;;;5109250;27;20870;-61
2024/01/09 03:45:18;;;;;;;6.20;3.97;;;;;;;;;;5109185;27;20044;-61
2024/01/09 03:47:44;;;;;;;5.88;3.33;;;;;;;;;;5109768;27;20126;-60
2024/01/09 03:50:11;;;;;;;5.63;3.45;;;;;;;;;;5110044;27;20048;-58
2024/01/09 03:52:37;;;;;;;7.05;3.72;;;;;;;;;;5109440;27;20037;-61
2024/01/09 03:55:04;;;;;;;6.50;3.75;;;;;;;;;;5110177;27;20055;-60
2024/01/09 03:57:30;;;;;;;4.78;3.20;;;;;;;;;;5110261;27;20503;-60
2024/01/09 03:59:57;;;;;;;4.15;3.25;;;;;;;;;;5109375;27;20051;-61
2024/01/09 04:02:23;;;;;;;8.20;4.40;;;;;;;;;;5110136;27;20052;-61
2024/01/09 04:04:50;;;;;;;6.13;2.78;;;;;;;;;;5109862;27;20059;-60
2024/01/09 04:07:16;;;;;;;7.00;3.65;;;;;;;;;;5110269;27;20056;-60
2024/01/09 04:09:42;;;;;;;11.65;3.35;;;;;;;;;;5109833;28;20534;-60
2024/01/09 04:12:09;;;;;;;6.78;3.20;;;;;;;;;;5108802;28;20058;-60
2024/01/09 04:14:35;;;;;;;5.57;3.45;;;;;;;;;;5109213;27;20533;-60
2024/01/09 04:17:03;;;;;;;5.68;3.30;;;;;;;;;;5109329;27;20055;-60
2024/01/09 04:19:29;;;;;;;4.03;2.60;;;;;;;;;;5110037;28;20374;-59
2024/01/09 04:21:56;;;;;;;4.82;2.88;;;;;;;;;;5109872;27;20370;-60
2024/01/09 04:24:22;;;;;;;5.68;3.40;;;;;;;;;;5109486;27;20063;-59
2024/01/09 04:26:49;;;;;;;5.53;3.17;;;;;;;;;;5109102;27;20052;-60
2024/01/09 04:29:15;;;;;;;5.03;3.40;;;;;;;;;;5108373;27;20080;-60
2024/01/09 04:31:41;;;;;;;5.50;3.25;;;;;;;;;;5109833;27;20059;-58
2024/01/09 04:34:08;;;;;;;5.00;2.92;;;;;;;;;;5109923;28;20518;-60
2024/01/09 04:36:35;;;;;;;5.95;3.33;;;;;;;;;;5109549;27;20515;-59
2024/01/09 04:39:01;;;;;;;8.52;4.20;;;;;;;;;;5109537;27;20056;-59
2024/01/09 04:41:27;;;;;;;4.25;2.63;;;;;;;;;;5108435;27;20055;-60
2024/01/09 04:43:54;;;;;;;4.90;3.30;;;;;;;;;;5109459;27;20082;-60
2024/01/09 04:46:20;;;;;;;6.38;3.67;;;;;;;;;;5109219;27;20143;-59
2024/01/09 04:48:46;;;;;;;6.35;3.90;;;;;;;;;;5108740;27;20044;-61
2024/01/09 04:51:13;;;;;;;7.63;3.60;;;;;;;;;;5109269;28;20110;-60
2024/01/09 04:53:39;;;;;;;5.13;3.55;;;;;;;;;;5109492;27;20499;-60
2024/01/09 04:56:06;;;;;;;8.45;3.83;;;;;;;;;;5108743;27;20438;-61
2024/01/09 04:58:32;;;;;;;5.18;3.38;;;;;;;;;;5109238;27;20056;-61
2024/01/09 05:00:59;;;;;;;4.70;2.90;;;;;;;;;;5108938;27;20063;-60
2024/01/09 05:03:25;;;;;;;6.07;3.22;;;;;;;;;;5109077;27;20052;-61
2024/01/09 05:05:52;;;;;;;6.32;3.35;;;;;;;;;;5108976;27;20048;-58
2024/01/09 05:08:18;;;;;;;4.55;3.40;;;;;;;;;;5108904;27;20059;-60
2024/01/09 05:10:44;;;;;;;7.43;3.60;;;;;;;;;;5108503;27;20083;-60
2024/01/09 05:13:11;;;;;;;4.57;3.47;;;;;;;;;;5108963;27;20270;-60
2024/01/09 05:15:37;;;;;;;10.15;3.58;;;;;;;;;;5108924;27;20052;-60
2024/01/09 05:18:04;;;;;;;4.90;3.33;;;;;;;;;;5109162;27;20063;-60
2024/01/09 05:20:31;;;;;;;7.00;4.05;;;;;;;;;;5109288;27;20052;-60
2024/01/09 05:22:58;;;;;;;5.22;3.72;;;;;;;;;;5108647;27;20072;-59
2024/01/09 05:25:24;;;;;;;5.25;3.03;;;;;;;;;;5108369;27;20101;-59
2024/01/09 05:27:51;;;;;;;5.32;3.35;;;;;;;;;;5109143;27;20064;-58
2024/01/09 05:30:17;;;;;;;7.85;3.10;;;;;;;;;;5108878;27;20563;-60
2024/01/09 05:32:44;;;;;;;4.18;2.90;;;;;;;;;;5108928;27;20056;-60
2024/01/09 05:35:10;;;;;;;5.63;3.80;;;;;;;;;;5107164;28;20049;-60
2024/01/09 05:37:37;;;;;;;4.95;3.53;;;;;;;;;;5108594;27;20051;-60
2024/01/09 05:40:04;;;;;;;5.60;3.50;;;;;;;;;;5109304;27;20063;-58
2024/01/09 05:42:30;;;;;;;6.38;4.07;;;;;;;;;;5112270;27;20514;-60
2024/01/09 05:44:56;;;;;;;5.63;3.42;;;;;;;;;;5112090;27;20079;-59
2024/01/09 05:47:23;;;;;;;6.22;3.65;;;;;;;;;;5112481;27;20138;-61
2024/01/09 05:49:49;;;;;;;7.80;3.80;;;;;;;;;;5112198;27;20087;-60
2024/01/09 05:52:16;;;;;;;5.93;3.57;;;;;;;;;;5112199;27;20052;-61
2024/01/09 05:54:45;;;;;;;6.20;3.78;;;;;;;;;;5111218;27;20051;-60
2024/01/09 05:57:13;;;;;;;4.88;3.30;;;;;;;;;;5112038;28;20155;-59
2024/01/09 05:59:39;;;;;;;6.22;3.50;;;;;;;;;;5112061;27;20075;-61
2024/01/09 06:02:05;;;;;;;5.97;3.67;;;;;;;;;;5112218;27;20048;-59
2024/01/09 06:04:32;;;;;;;6.45;3.75;;;;;;;;;;5112026;27;20052;-61
2024/01/09 06:06:58;;;;;;;5.75;3.45;;;;;;;;;;5111653;27;20514;-60
2024/01/09 06:09:25;;;;;;;9.90;3.80;;;;;;;;;;5111847;27;20070;-59
2024/01/09 06:11:51;;;;;;;7.77;3.33;;;;;;;;;;5111740;27;20052;-60
2024/01/09 06:14:18;;;;;;;5.20;3.20;;;;;;;;;;5111647;27;20048;-60
2024/01/09 06:16:44;;;;;;;6.07;4.13;;;;;;;;;;5111585;27;20051;-59
2024/01/09 06:19:11;;;;;;;8.45;3.45;;;;;;;;;;5111204;27;20052;-59
2024/01/09 06:21:38;;;;;;;7.78;3.55;;;;;;;;;;5109943;27;20044;-60
2024/01/09 06:24:04;;;;;;;6.35;3.95;;;;;;;;;;5111465;27;20095;-59
2024/01/09 06:26:31;;;;;;;6.95;3.65;;;;;;;;;;5111530;27;20139;-59
2024/01/09 06:28:57;;;;;;;6.15;3.90;;;;;;;;;;5111498;27;20630;-60
2024/01/09 06:31:23;;;;;;;7.35;3.80;;;;;;;;;;5111666;27;20135;-61
2024/01/09 06:33:50;;;;;;;6.77;3.13;;;;;;;;;;5111386;27;20075;-60
2024/01/09 06:36:16;;;;;;;6.40;4.37;;;;;;;;;;5111112;27;20056;-59
2024/01/09 06:38:43;;;;;;;6.90;3.97;;;;;;;;;;5110624;27;20056;-59
2024/01/09 06:41:09;;;;;;;5.97;3.97;;;;;;;;;;5111221;27;20079;-61
2024/01/09 06:43:35;;;;;;;6.30;3.95;;;;;;;;;;5111317;27;20052;-57
2024/01/09 06:46:02;;;;;;;7.35;3.50;;;;;;;;;;5111040;28;20385;-59
2024/01/09 06:48:28;;;;;;;5.95;4.07;;;;;;;;;;5110311;27;20056;-59
2024/01/09 06:50:55;;;;;;;8.88;3.50;;;;;;;;;;5110495;27;20086;-59
2024/01/09 06:53:22;;;;;;;5.78;3.72;;;;;;;;;;5110390;27;20056;-59
2024/01/09 06:55:48;;;;;;;6.55;4.07;;;;;;;;;;5110988;27;20058;-57
2024/01/09 06:58:16;;;;;;;5.25;3.40;;;;;;;;;;5111005;27;20063;-59
2024/01/09 07:00:43;;;;;;;6.93;3.67;;;;;;;;;;5110762;27;20056;-59
2024/01/09 07:03:10;;;;;;;8.38;3.60;;;;;;;;;;5111036;27;20139;-60
2024/01/09 07:05:36;;;;;;;8.02;3.58;;;;;;;;;;5110986;27;20078;-59
2024/01/09 07:08:03;;;;;;;13.75;3.92;;;;;;;;;;5110025;27;20048;-59
2024/01/09 07:10:29;;;;;;;6.25;3.65;;;;;;;;;;5110839;27;20048;-60
2024/01/09 07:12:56;;;;;;;6.13;3.70;;;;;;;;;;5110759;27;20139;-60
2024/01/09 07:15:22;;;;;;;7.30;3.90;;;;;;;;;;5110969;27;20093;-60
2024/01/09 07:17:49;;;;;;;8.57;4.20;;;;;;;;;;5110412;27;20055;-59
2024/01/09 07:20:16;;;;;;;8.43;4.07;;;;;;;;;;5110612;27;20074;-59
2024/01/09 07:22:42;;;;;;;8.40;3.72;;;;;;;;;;5110009;27;20472;-60
2024/01/09 07:25:14;;;;;;;4.57;2.72;;;;;;;;;;5110644;27;20082;-59
2024/01/09 07:27:40;;;;;;;5.10;3.33;;;;;;;;;;5110849;27;20052;-60
2024/01/09 07:30:07;;;;;;;5.13;3.42;;;;;;;;;;5110621;27;20052;-60
2024/01/09 07:32:34;;;;;;;6.80;3.27;;;;;;;;;;5109983;27;20510;-60
2024/01/09 07:35:01;;;;;;;6.47;3.33;;;;;;;;;;5110406;27;20052;-60
2024/01/09 07:37:27;;;;;;;7.13;2.70;;;;;;;;;;5110213;27;20129;-60
2024/01/09 07:39:54;;;;;;;5.38;3.22;;;;;;;;;;5110128;27;20098;-59
2024/01/09 07:42:20;;;;;;;4.75;3.20;;;;;;;;;;5110125;27;20082;-60
2024/01/09 07:44:47;;;;;;;5.88;3.42;;;;;;;;;;5110241;27;20498;-60
2024/01/09 07:47:13;;;;;;;5.88;3.30;;;;;;;;;;5109647;27;20291;-60
2024/01/09 07:49:39;;;;;;;7.00;3.40;;;;;;;;;;5109940;27;20577;-60
2024/01/09 07:52:09;;;;;;;5.57;2.92;;;;;;;;;;5109880;27;20521;-59
2024/01/09 07:54:35;;;;;;;6.37;3.03;;;;;;;;;;5110351;27;20052;-60
2024/01/09 07:57:02;;;;;;;7.28;3.60;;;;;;;;;;5109979;27;20502;-60
2024/01/09 07:59:28;;;;;;;5.13;3.20;;;;;;;;;;5110071;27;20048;-61
2024/01/09 08:01:55;;;;;;;6.65;3.63;;;;;;;;;;5109963;27;20490;-60
2024/01/09 08:04:22;;;;;;;7.17;3.47;;;;;;;;;;5109297;27;20072;-60
2024/01/09 08:06:52;;;;;;;8.00;3.85;;;;;;;;;;5109538;27;20525;-61
2024/01/09 08:09:18;;;;;;;5.13;3.40;;;;;;;;;;5109729;27;20121;-61
2024/01/09 08:11:45;;;;;;;6.80;2.97;;;;;;;;;;5109845;27;20048;-61
2024/01/09 08:14:13;;;;;;;5.15;2.60;;;;;;;;;;5109550;27;20059;-61
2024/01/09 08:16:40;;;;;;;6.68;3.20;;;;;;;;;;5109839;27;20101;-60
2024/01/09 08:19:06;;;;;;;9.17;3.30;;;;;;;;;;5110035;27;20152;-59
2024/01/09 08:21:35;;;;;;;9.75;3.47;;;;;;;;;;5109110;28;20132;-60
2024/01/09 08:24:05;;;;;;;5.75;3.65;;;;;;;;;;5110172;27;20080;-61
2024/01/09 08:26:32;;;;;;;6.28;3.20;;;;;;;;;;5109493;27;20383;-60
2024/01/09 08:29:00;;;;;;;6.07;3.08;;;;;;;;;;5109242;27;20164;-61
2024/01/09 08:31:26;;;;;;;7.77;3.40;;;;;;;;;;5109595;27;20139;-60
2024/01/09 08:33:53;;;;;;;6.87;3.07;;;;;;;;;;5108789;27;20044;-61
2024/01/09 08:36:19;;;;;;;9.43;3.53;;;;;;;;;;5109208;27;20129;-60
2024/01/09 08:38:46;;;;;;;3.75;2.80;;;;;;;;;;5109356;27;20485;-61
2024/01/09 08:41:12;;;;;;;6.57;2.67;;;;;;;;;;5109449;27;20538;-59
2024/01/09 08:43:40;;;;;;;7.32;3.50;;;;;;;;;;5109396;27;20109;-60
2024/01/09 08:46:06;;;;;;;5.53;2.53;;;;;;;;;;5109075;27;20432;-60
2024/01/09 08:48:33;;;;;;;5.82;3.13;;;;;;;;;;5108203;27;20129;-61
2024/01/09 08:50:59;;;;;;;3.88;3.13;;;;;;;;;;5108964;27;20537;-60
2024/01/09 08:53:28;;;;;;;4.78;2.83;;;;;;;;;;5109289;27;20052;-59
2024/01/09 08:55:55;;;;;;;4.28;2.88;;;;;;;;;;5109108;27;20106;-60
2024/01/09 08:58:21;;;;;;;7.03;2.92;;;;;;;;;;5109163;27;20047;-61
2024/01/09 09:00:49;;;;;;;8.23;3.00;;;;;;;;;;5108968;27;20052;-59
2024/01/09 09:03:15;;;;;;;5.90;3.10;;;;;;;;;;5108877;27;20098;-60
2024/01/09 09:05:42;;;;;;;4.03;2.88;;;;;;;;;;5108876;27;20506;-60
2024/01/09 09:08:08;;;;;;;5.22;2.90;;;;;;;;;;5109118;27;20060;-59
2024/01/09 09:10:35;;;;;;;5.95;3.17;;;;;;;;;;5108533;27;20055;-60
2024/01/09 09:13:01;;;;;;;4.53;3.15;;;;;;;;;;5108870;27;20592;-60
2024/01/09 09:15:27;;;;;;;4.57;2.63;;;;;;;;;;5108155;27;20506;-60
2024/01/09 09:17:54;;;;;;;6.77;3.37;;;;;;;;;;5108300;27;20087;-59
2024/01/09 09:20:22;;;;;;;4.32;2.83;;;;;;;;;;5108751;27;20052;-60
2024/01/09 09:22:48;;;;;;;6.43;2.88;;;;;;;;;;5108850;27;20052;-60
2024/01/09 09:25:15;;;;;;;4.13;2.60;;;;;;;;;;5108817;27;20647;-60
2024/01/09 09:27:42;;;;;;;4.22;2.55;;;;;;;;;;5108922;27;20087;-58
2024/01/09 09:30:10;;;;;;;4.97;2.95;;;;;;;;;;5108902;27;20064;-58
2024/01/09 09:32:37;;;;;;;4.75;2.58;;;;;;;;;;5108291;28;20064;-60
2024/01/09 09:35:03;;;;;;;8.25;2.65;;;;;;;;;;5108246;27;20064;-60
2024/01/09 09:37:30;;;;;;;4.32;2.65;;;;;;;;;;5108526;27;20145;-60
2024/01/09 09:39:56;;;;;;;5.28;2.65;;;;;;;;;;5108527;27;20056;-58
2024/01/09 09:42:24;;;;;;;2.95;2.30;;;;;;;;;;5108441;27;20568;-61
2024/01/09 09:44:52;;;;;;;5.22;3.08;;;;;;;;;;5108427;27;20530;-61
2024/01/09 09:47:19;;;;;;;4.57;2.60;;;;;;;;;;5108115;27;20056;-61
2024/01/09 09:49:46;;;;;;;3.80;2.22;;;;;;;;;;5108172;27;20060;-59
2024/01/09 09:52:13;;;;;;;6.82;3.15;;;;;;;;;;5108025;27;20058;-61
2024/01/09 09:54:39;;;;;;;3.45;2.22;;;;;;;;;;5108524;27;20052;-61
2024/01/09 09:57:06;;;;;;;5.70;2.77;;;;;;;;;;5108525;27;20105;-61
2024/01/09 09:59:33;;;;;;;4.30;2.60;;;;;;;;;;5106557;28;20048;-61
2024/01/09 10:02:04;;;;;;;2.87;2.00;;;;;;;;;;5107582;27;20062;-59
2024/01/09 10:04:36;;;;;;;3.90;2.20;;;;;;;;;;5108305;27;20102;-60
2024/01/09 10:07:04;;;;;;;5.78;2.55;;;;;;;;;;5108500;27;20524;-60
2024/01/09 10:09:32;;;;;;;3.20;1.98;;;;;;;;;;5108519;28;20048;-60
2024/01/09 10:11:58;;;;;;;5.22;2.30;;;;;;;;;;5108289;28;20131;-61
2024/01/09 10:14:25;;;;;;;5.65;2.53;;;;;;;;;;5108083;27;20059;-60
2024/01/09 10:16:53;;;;;;;4.25;2.47;;;;;;;;;;5107695;27;20109;-60
2024/01/09 10:19:22;;;;;;;4.57;2.67;;;;;;;;;;5107998;28;20477;-60
2024/01/09 10:21:49;;;;;;;5.07;2.63;;;;;;;;;;5108147;27;20190;-61
2024/01/09 10:24:16;;;;;;;4.25;2.13;;;;;;;;;;5108202;27;20059;-59
2024/01/09 10:26:43;;;;;;;3.92;2.30;;;;;;;;;;5108836;27;20048;-61
2024/01/09 10:29:10;;;;;;;5.72;2.60;;;;;;;;;;5110941;28;20147;-61
2024/01/09 10:31:38;;;;;;;3.25;2.05;;;;;;;;;;5110787;27;20159;-60
2024/01/09 10:34:05;;;;;;;3.05;2.20;;;;;;;;;;5111542;27;20052;-61
2024/01/09 10:36:32;;;;;;;5.53;2.42;;;;;;;;;;5111413;27;20486;-61
2024/01/09 10:39:05;;;;;;;2.47;2.00;;;;;;;;;;5111149;27;20580;-60
2024/01/09 10:41:32;;;;;;;3.50;2.08;;;;;;;;;;5111293;27;20056;-60
2024/01/09 10:43:59;;;;;;;3.95;2.22;;;;;;;;;;5110530;27;20499;-59
2024/01/09 10:46:26;;;;;;;4.30;2.63;;;;;;;;;;5111025;27;20054;-60
2024/01/09 10:48:55;;;;;;;3.60;2.40;;;;;;;;;;5110268;27;20087;-60
2024/01/09 10:51:22;;;;;;;3.67;2.30;;;;;;;;;;5111400;27;20056;-61
2024/01/09 10:53:50;;;;;;;2.85;2.05;;;;;;;;;;5110959;27;20506;-61
2024/01/09 10:56:18;;;;;;;3.85;2.30;;;;;;;;;;5111002;27;20063;-61
2024/01/09 10:58:45;;;;;;;3.97;2.60;;;;;;;;;;5110514;27;20052;-61
2024/01/09 11:01:13;;;;;;;2.35;1.95;;;;;;;;;;5111290;27;20421;-60
2024/01/09 11:03:40;;;;;;;4.65;2.28;;;;;;;;;;5111403;27;20056;-60
2024/01/09 11:06:08;;;;;;;2.72;2.10;;;;;;;;;;5110803;27;20052;-60
2024/01/09 11:08:35;;;;;;;4.60;2.45;;;;;;;;;;5110567;27;20056;-61
2024/01/09 11:11:07;;;;;;;3.65;1.83;;;;;;;;;;5110910;28;20131;-60
2024/01/09 11:13:34;;;;;;;3.08;2.45;;;;;;;;;;5110309;27;20136;-61
2024/01/09 11:16:02;;;;;;;3.35;2.30;;;;;;;;;;5110843;27;20512;-60
2024/01/09 11:18:30;;;;;;;2.95;1.90;;;;;;;;;;5110445;27;20052;-59
2024/01/09 11:21:04;;;;;;;4.72;2.35;;;;;;;;;;5110625;27;20111;-61
2024/01/09 11:23:42;;;;;;;3.40;2.00;;;;;;;;;;5110761;27;20052;-60
2024/01/09 11:26:10;;;;;;;2.72;2.15;;;;;;;;;;5110483;27;20080;-60
2024/01/09 11:28:37;;;;;;;4.63;2.17;;;;;;;;;;5109977;27;20052;-60
2024/01/09 11:31:06;;;;;;;3.70;2.10;;;;;;;;;;5110652;27;20060;-61
2024/01/09 11:33:33;;;;;;;4.07;2.00;;;;;;;;;;5110328;27;20052;-60
2024/01/09 11:36:03;;;;;;;4.63;2.20;;;;;;;;;;5110866;27;20056;-61
2024/01/09 11:38:30;;;;;;;2.65;1.98;;;;;;;;;;5109559;27;20556;-60
2024/01/09 11:41:02;;;;;;;3.13;2.33;;;;;;;;;;5110377;27;20063;-60
2024/01/09 11:43:28;;;;;;;3.15;2.10;;;;;;;;;;5109900;27;20055;-59
2024/01/09 11:45:54;;;;;;;4.43;2.28;;;;;;;;;;5110084;27;20052;-61
2024/01/09 11:48:21;;;;;;;3.78;2.05;;;;;;;;;;5109879;27;20137;-61
2024/01/09 11:50:47;;;;;;;4.65;2.30;;;;;;;;;;5110023;27;20055;-61
2024/01/09 11:53:14;;;;;;;2.40;1.63;;;;;;;;;;5110346;27;20054;-61
2024/01/09 11:55:41;;;;;;;4.05;2.47;;;;;;;;;;5110708;27;20056;-60
2024/01/09 11:58:07;;;;;;;3.75;2.08;;;;;;;;;;5109647;27;20052;-61
2024/01/09 12:00:34;;;;;;;3.53;2.08;;;;;;;;;;5109824;27;20060;-61
2024/01/09 12:03:01;;;;;;;2.72;1.65;;;;;;;;;;5109722;27;20055;-61
2024/01/09 12:05:27;;;;;;;5.10;2.13;;;;;;;;;;5108338;28;20579;-59
2024/01/09 12:07:53;;;;;;;4.05;1.90;;;;;;;;;;5109718;27;20099;-61
2024/01/09 12:10:20;;;;;;;4.10;2.03;;;;;;;;;;5109919;27;20059;-61
2024/01/09 12:13:01;;;;;;;2.83;2.20;;;;;;;;;;5109222;27;20055;-61
2024/01/09 12:15:28;;;;;;;3.63;2.25;;;;;;;;;;5109570;27;20091;-61
2024/01/09 12:17:58;;;;;;;3.65;2.22;;;;;;;;;;5109808;27;20059;-61
2024/01/09 12:20:25;;;;;;;2.72;2.10;;;;;;;;;;5109550;27;20059;-61
2024/01/09 12:22:52;;;;;;;5.38;2.30;;;;;;;;;;5109598;27;20137;-61
2024/01/09 12:25:19;;;;;;;3.97;2.25;;;;;;;;;;5108967;27;20523;-61
2024/01/09 12:27:46;;;;;;;2.25;1.60;;;;;;;;;;5109384;27;20052;-59
2024/01/09 12:30:13;;;;;;;3.90;1.75;;;;;;;;;;5109778;27;20063;-61
2024/01/09 12:32:40;;;;;;;2.63;1.80;;;;;;;;;;5109292;27;20063;-60
2024/01/09 12:35:07;;;;;;;2.63;1.80;;;;;;;;;;5109485;27;20472;-60
2024/01/09 12:37:33;;;;;;;3.70;1.92;;;;;;;;;;5109518;27;20080;-61
2024/01/09 12:40:00;;;;;;;2.78;1.85;;;;;;;;;;5109352;27;20242;-60
2024/01/09 12:42:27;;;;;;;2.70;1.73;;;;;;;;;;5109285;27;20117;-59
2024/01/09 12:44:53;;;;;;;2.67;1.80;;;;;;;;;;5108962;27;20515;-60
2024/01/09 12:47:20;;;;;;;3.83;1.85;;;;;;;;;;5109101;27;20056;-61
2024/01/09 12:49:47;;;;;;;11.27;2.58;;;;;;;;;;5108149;27;20370;-58
2024/01/09 12:52:34;;;;;;;3.45;2.00;;;;;;;;;;5108806;28;20048;-60
2024/01/09 12:55:00;;;;;;;2.97;1.80;;;;;;;;;;5108860;27;20048;-61
2024/01/09 12:57:30;;;;;;;3.08;2.00;;;;;;;;;;5108979;27;20082;-60
2024/01/09 12:59:57;;;;;;;5.22;2.42;;;;;;;;;;5109055;27;20052;-61
2024/01/09 13:02:23;;;;;;;3.88;2.33;;;;;;;;;;5109461;27;20105;-61
2024/01/09 13:04:50;;;;;;;5.55;2.15;;;;;;;;;;5109195;27;20430;-61
2024/01/09 13:07:18;;;;;;;3.90;2.45;;;;;;;;;;5108989;27;20102;-58
2024/01/09 13:09:44;;;;;;;3.58;1.75;;;;;;;;;;5108838;27;20063;-60
2024/01/09 13:12:11;;;;;;;3.15;1.85;;;;;;;;;;5108928;27;20133;-59
2024/01/09 13:14:40;;;;;;;3.45;1.88;;;;;;;;;;5108811;27;20571;-60
2024/01/09 13:17:07;;;;;;;4.35;2.55;;;;;;;;;;5108514;27;20056;-59
2024/01/09 13:19:34;;;;;;;2.33;1.77;;;;;;;;;;5108699;27;20514;-60
2024/01/09 13:22:01;;;;;;;3.90;2.17;;;;;;;;;;5108788;27;20056;-59
2024/01/09 13:24:30;;;;;;;3.53;1.90;;;;;;;;;;5108755;27;20139;-60
2024/01/09 13:26:57;;;;;;;2.58;1.92;;;;;;;;;;5108660;27;20131;-58
2024/01/09 13:29:25;;;;;;;6.25;1.98;;;;;;;;;;5108614;28;20481;-60
2024/01/09 13:31:54;;;;;;;4.57;1.90;;;;;;;;;;5107107;27;20056;-60
2024/01/09 13:34:20;;;;;;;3.60;2.00;;;;;;;;;;5108885;27;20056;-60
2024/01/09 13:36:48;;;;;;;2.58;1.88;;;;;;;;;;5108961;27;20076;-59
2024/01/09 13:39:16;;;;;;;2.97;1.75;;;;;;;;;;5108122;27;20131;-60
2024/01/09 13:41:44;;;;;;;2.75;1.88;;;;;;;;;;5108537;27;20484;-60
2024/01/09 13:44:10;;;;;;;6.20;2.03;;;;;;;;;;5108696;27;20151;-61
2024/01/09 13:46:37;;;;;;;3.33;1.90;;;;;;;;;;5108724;27;20048;-60
2024/01/09 13:49:03;;;;;;;4.03;2.15;;;;;;;;;;5107316;27;20056;-60
2024/01/09 13:51:30;;;;;;;7.43;2.35;;;;;;;;;;5108639;27;20044;-59
2024/01/09 13:54:00;;;;;;;2.40;1.80;;;;;;;;;;5108024;27;21127;-61
2024/01/09 13:56:27;;;;;;;3.05;2.00;;;;;;;;;;5108477;27;20821;-61
2024/01/09 13:58:54;;;;;;;4.10;2.72;;;;;;;;;;5108186;27;20044;-60
2024/01/09 14:01:20;;;;;;;4.90;2.75;;;;;;;;;;5110078;27;20323;-58
2024/01/09 14:04:03;;;;;;;5.20;2.15;;;;;;;;;;5111972;27;20398;-60
2024/01/09 14:06:30;;;;;;;3.88;2.00;;;;;;;;;;5111888;27;20048;-61
2024/01/09 14:08:57;;;;;;;3.33;2.05;;;;;;;;;;5111314;27;20052;-60
2024/01/09 14:11:23;;;;;;;4.80;2.05;;;;;;;;;;5111531;27;20071;-60
2024/01/09 14:13:50;;;;;;;3.33;2.10;;;;;;;;;;5111838;27;20056;-60
2024/01/09 14:16:17;;;;;;;3.63;2.10;;;;;;;;;;5111804;27;20140;-59
2024/01/09 14:18:44;;;;;;;3.90;1.77;;;;;;;;;;5111520;27;20051;-60
2024/01/09 14:21:11;;;;;;;4.18;2.10;;;;;;;;;;5111740;27;20250;-59
2024/01/09 14:23:37;;;;;;;3.45;2.00;;;;;;;;;;5111080;27;20147;-58
2024/01/09 14:26:04;;;;;;;3.53;1.92;;;;;;;;;;5111296;27;20044;-60
2024/01/09 14:28:31;;;;;;;4.05;2.15;;;;;;;;;;5111841;27;20609;-60
2024/01/09 14:30:57;;;;;;;4.38;2.17;;;;;;;;;;5111095;27;20056;-60
2024/01/09 14:33:24;;;;;;;2.45;1.80;;;;;;;;;;5111027;27;20064;-59
2024/01/09 14:35:50;;;;;;;4.25;2.25;;;;;;;;;;5110925;27;20056;-60
2024/01/09 14:38:18;;;;;;;3.67;2.05;;;;;;;;;;5111477;27;20054;-60
2024/01/09 14:40:44;;;;;;;3.33;2.08;;;;;;;;;;5111408;27;20055;-60